N694PB LLEY-LLHZ
Flight info
| Callsign | N694PB |
|---|---|
| Flight time | 0h 45m |
| Altitude | 2000 |
| Route | HAZVA ARAVA ZOHAR MMORR LLMZ SHALM ZUKIM ALMOG DUMIM HNINA HAREL SORES SHARG LTRUN AYLON NSHRM SIRNI NTAIM SUPER TYONA CLORE RIDNG HTZUK KNTRY |
| Aircraft | TBM/L-V/N |
Departure
| Time | 2026-04-17 13:33 |
|---|---|
| Airport | Ein Yahav Airfield (LLEY) |
Arrival
| Time | 2026-04-17 14:19 |
|---|---|
| Airport | Herzliya Airport (LLHZ) |
| Time | Latitude | Longitude | Altitude | Speed | Heading |
|---|---|---|---|---|---|
| 2026-04-17 13:33 | 30.79812 | 35.24311 | 4203 ft | 199 kts | 9° |
| 2026-04-17 13:33 | 30.81146 | 35.24592 | 3912 ft | 190 kts | 6° |
| 2026-04-17 13:34 | 30.82391 | 35.24851 | 3815 ft | 169 kts | 7° |
| 2026-04-17 13:34 | 30.83131 | 35.25025 | 3745 ft | 160 kts | 12° |
| 2026-04-17 13:34 | 30.84217 | 35.25346 | 4006 ft | 156 kts | 9° |
| 2026-04-17 13:34 | 30.85367 | 35.25590 | 4312 ft | 186 kts | 6° |
| 2026-04-17 13:35 | 30.86804 | 35.25897 | 4077 ft | 230 kts | 10° |
| 2026-04-17 13:35 | 30.88364 | 35.26270 | 4548 ft | 221 kts | 11° |
| 2026-04-17 13:35 | 30.89945 | 35.26772 | 4204 ft | 257 kts | 20° |
| 2026-04-17 13:35 | 30.91624 | 35.27674 | 3984 ft | 266 kts | 26° |
| 2026-04-17 13:36 | 30.93273 | 35.28605 | 3990 ft | 262 kts | 21° |
| 2026-04-17 13:36 | 30.94946 | 35.29193 | 4029 ft | 216 kts | 20° |
| 2026-04-17 13:36 | 30.96228 | 35.29881 | 3989 ft | 196 kts | 25° |
| 2026-04-17 13:36 | 30.97414 | 35.30516 | 3989 ft | 179 kts | 24° |
| 2026-04-17 13:37 | 30.98508 | 35.31062 | 3986 ft | 164 kts | 23° |
| 2026-04-17 13:37 | 30.99517 | 35.31564 | 3986 ft | 152 kts | 23° |
| 2026-04-17 13:37 | 31.00462 | 35.32034 | 3987 ft | 142 kts | 22° |
| 2026-04-17 13:37 | 31.01328 | 35.32473 | 3996 ft | 137 kts | 22° |
| 2026-04-17 13:38 | 31.02330 | 35.32969 | 4021 ft | 175 kts | 23° |
| 2026-04-17 13:38 | 31.03560 | 35.33561 | 4025 ft | 205 kts | 22° |
| 2026-04-17 13:38 | 31.04779 | 35.34146 | 4013 ft | 174 kts | 22° |
| 2026-04-17 13:38 | 31.05825 | 35.34625 | 3992 ft | 151 kts | 21° |
| 2026-04-17 13:39 | 31.06809 | 35.35060 | 3997 ft | 150 kts | 20° |
| 2026-04-17 13:39 | 31.07785 | 35.35499 | 3995 ft | 152 kts | 21° |
| 2026-04-17 13:39 | 31.08711 | 35.35919 | 3987 ft | 130 kts | 21° |
| 2026-04-17 13:39 | 31.09596 | 35.36311 | 4009 ft | 156 kts | 20° |
| 2026-04-17 13:40 | 31.10720 | 35.36813 | 4025 ft | 189 kts | 21° |
| 2026-04-17 13:40 | 31.12021 | 35.37402 | 4026 ft | 211 kts | 21° |
| 2026-04-17 13:40 | 31.13372 | 35.38014 | 4002 ft | 196 kts | 20° |
| 2026-04-17 13:40 | 31.14660 | 35.38232 | 3996 ft | 179 kts | 358° |
| 2026-04-17 13:41 | 31.15839 | 35.38220 | 3990 ft | 164 kts | 358° |
| 2026-04-17 13:41 | 31.16920 | 35.38211 | 3994 ft | 148 kts | 358° |
| 2026-04-17 13:41 | 31.17967 | 35.38199 | 3992 ft | 154 kts | 358° |
| 2026-04-17 13:41 | 31.19048 | 35.38190 | 3993 ft | 158 kts | 358° |
| 2026-04-17 13:42 | 31.20158 | 35.38179 | 4000 ft | 160 kts | 358° |
| 2026-04-17 13:42 | 31.21278 | 35.38166 | 4000 ft | 161 kts | 358° |
| 2026-04-17 13:42 | 31.22396 | 35.38153 | 4002 ft | 161 kts | 358° |
| 2026-04-17 13:42 | 31.23519 | 35.38145 | 4003 ft | 161 kts | 358° |
| 2026-04-17 13:43 | 31.24655 | 35.38130 | 4010 ft | 166 kts | 358° |
| 2026-04-17 13:43 | 31.25814 | 35.38167 | 4008 ft | 166 kts | 2° |
| 2026-04-17 13:43 | 31.26960 | 35.38234 | 4009 ft | 164 kts | 1° |
| 2026-04-17 13:43 | 31.28100 | 35.38308 | 4005 ft | 163 kts | 2° |
| 2026-04-17 13:44 | 31.29233 | 35.38384 | 4005 ft | 163 kts | 2° |
| 2026-04-17 13:44 | 31.30361 | 35.38457 | 4000 ft | 163 kts | 2° |
| 2026-04-17 13:44 | 31.31497 | 35.38528 | 4003 ft | 163 kts | 3° |
| 2026-04-17 13:44 | 31.32619 | 35.38671 | 4024 ft | 162 kts | 7° |
| 2026-04-17 13:45 | 31.33740 | 35.38880 | 4015 ft | 161 kts | 10° |
| 2026-04-17 13:45 | 31.34838 | 35.39159 | 4009 ft | 159 kts | 4° |
| 2026-04-17 13:45 | 31.35949 | 35.39183 | 3977 ft | 161 kts | 350° |
| 2026-04-17 13:45 | 31.37077 | 35.38998 | 3913 ft | 165 kts | 352° |
| 2026-04-17 13:46 | 31.38207 | 35.38841 | 3910 ft | 163 kts | 352° |
| 2026-04-17 13:46 | 31.39342 | 35.38765 | 3893 ft | 162 kts | 0° |
| 2026-04-17 13:46 | 31.40434 | 35.38991 | 3968 ft | 156 kts | 18° |
| 2026-04-17 13:46 | 31.41527 | 35.39347 | 3838 ft | 169 kts | 12° |
| 2026-04-17 13:47 | 31.42639 | 35.39616 | 3965 ft | 155 kts | 11° |
| 2026-04-17 13:47 | 31.43724 | 35.39894 | 4011 ft | 149 kts | 12° |
| 2026-04-17 13:47 | 31.44690 | 35.40108 | 3962 ft | 152 kts | 8° |
| 2026-04-17 13:47 | 31.45753 | 35.40319 | 3826 ft | 158 kts | 9° |
| 2026-04-17 13:48 | 31.46796 | 35.40494 | 3906 ft | 148 kts | 4° |
| 2026-04-17 13:48 | 31.47855 | 35.40541 | 3732 ft | 156 kts | 352° |
| 2026-04-17 13:48 | 31.48916 | 35.40426 | 3757 ft | 148 kts | 358° |
| 2026-04-17 13:48 | 31.49912 | 35.40437 | 3884 ft | 138 kts | 0° |
| 2026-04-17 13:49 | 31.50870 | 35.40258 | 3648 ft | 149 kts | 345° |
| 2026-04-17 13:49 | 31.51859 | 35.40268 | 3768 ft | 137 kts | 5° |
| 2026-04-17 13:49 | 31.52789 | 35.40383 | 3851 ft | 135 kts | 5° |
| 2026-04-17 13:49 | 31.53787 | 35.40446 | 3771 ft | 149 kts | 5° |
| 2026-04-17 13:50 | 31.54875 | 35.40634 | 3587 ft | 153 kts | 13° |
| 2026-04-17 13:50 | 31.55854 | 35.40926 | 3769 ft | 148 kts | 17° |
| 2026-04-17 13:50 | 31.56861 | 35.41251 | 3861 ft | 151 kts | 14° |
| 2026-04-17 13:50 | 31.57872 | 35.41544 | 3955 ft | 148 kts | 13° |
| 2026-04-17 13:51 | 31.58862 | 35.41802 | 3997 ft | 146 kts | 13° |
| 2026-04-17 13:51 | 31.59853 | 35.42065 | 3994 ft | 146 kts | 13° |
| 2026-04-17 13:51 | 31.60829 | 35.42318 | 3991 ft | 146 kts | 13° |
| 2026-04-17 13:51 | 31.61821 | 35.42576 | 3991 ft | 146 kts | 13° |
| 2026-04-17 13:52 | 31.62843 | 35.42838 | 4015 ft | 156 kts | 13° |
| 2026-04-17 13:52 | 31.63917 | 35.43122 | 4011 ft | 159 kts | 13° |
| 2026-04-17 13:52 | 31.65011 | 35.43402 | 4006 ft | 161 kts | 12° |
| 2026-04-17 13:52 | 31.66098 | 35.43689 | 4004 ft | 154 kts | 13° |
| 2026-04-17 13:53 | 31.67098 | 35.43958 | 3994 ft | 142 kts | 13° |
| 2026-04-17 13:53 | 31.68099 | 35.44203 | 4012 ft | 167 kts | 12° |
| 2026-04-17 13:53 | 31.69370 | 35.44531 | 4026 ft | 205 kts | 14° |
| 2026-04-17 13:53 | 31.70836 | 35.44931 | 4023 ft | 225 kts | 14° |
| 2026-04-17 13:54 | 31.73460 | 35.45624 | 4016 ft | 239 kts | 14° |
| 2026-04-17 13:54 | 31.75644 | 35.46218 | 4017 ft | 242 kts | 13° |
| 2026-04-17 13:55 | 31.78935 | 35.46083 | 3879 ft | 244 kts | 324° |
| 2026-04-17 13:55 | 31.80205 | 35.44874 | 3809 ft | 199 kts | 317° |
| 2026-04-17 13:55 | 31.81195 | 35.42870 | 4110 ft | 149 kts | 290° |
| 2026-04-17 13:56 | 31.81865 | 35.39900 | 3764 ft | 199 kts | 282° |
| 2026-04-17 13:56 | 31.82083 | 35.38421 | 3612 ft | 178 kts | 274° |
| 2026-04-17 13:56 | 31.82200 | 35.37030 | 3709 ft | 170 kts | 266° |
| 2026-04-17 13:57 | 31.82034 | 35.35653 | 3879 ft | 176 kts | 255° |
| 2026-04-17 13:57 | 31.81610 | 35.34284 | 3932 ft | 182 kts | 243° |
| 2026-04-17 13:57 | 31.80584 | 35.31615 | 4027 ft | 165 kts | 270° |
| 2026-04-17 13:58 | 31.80870 | 35.30395 | 4001 ft | 145 kts | 286° |
| 2026-04-17 13:58 | 31.81583 | 35.28308 | 4407 ft | 139 kts | 285° |
| 2026-04-17 13:58 | 31.81940 | 35.27212 | 4829 ft | 149 kts | 284° |
| 2026-04-17 13:59 | 31.82613 | 35.24885 | 5265 ft | 159 kts | 277° |
| 2026-04-17 13:59 | 31.82873 | 35.23435 | 4972 ft | 185 kts | 279° |
| 2026-04-17 13:59 | 31.83093 | 35.22358 | 4968 ft | 163 kts | 279° |
| 2026-04-17 14:00 | 31.83130 | 35.21010 | 5012 ft | 180 kts | 247° |
| 2026-04-17 14:00 | 31.82571 | 35.19600 | 5053 ft | 202 kts | 239° |
| 2026-04-17 14:00 | 31.81910 | 35.18070 | 5053 ft | 218 kts | 240° |
| 2026-04-17 14:00 | 31.81194 | 35.16468 | 5049 ft | 225 kts | 236° |
| 2026-04-17 14:01 | 31.80275 | 35.14986 | 5050 ft | 224 kts | 225° |
| 2026-04-17 14:01 | 31.79502 | 35.13386 | 5061 ft | 235 kts | 253° |
| 2026-04-17 14:01 | 31.79459 | 35.11447 | 5064 ft | 241 kts | 270° |
| 2026-04-17 14:01 | 31.79615 | 35.09461 | 5057 ft | 243 kts | 272° |
| 2026-04-17 14:02 | 31.79778 | 35.07488 | 5066 ft | 242 kts | 271° |
| 2026-04-17 14:02 | 31.80016 | 35.05538 | 5053 ft | 243 kts | 283° |
| 2026-04-17 14:02 | 31.80759 | 35.03781 | 4730 ft | 231 kts | 298° |
| 2026-04-17 14:02 | 31.81651 | 35.02395 | 4079 ft | 175 kts | 307° |
| 2026-04-17 14:03 | 31.82236 | 35.01495 | 3556 ft | 113 kts | 303° |
| 2026-04-17 14:03 | 31.82677 | 35.00924 | 3072 ft | 82 kts | 313° |
| 2026-04-17 14:03 | 31.83066 | 35.00521 | 2738 ft | 76 kts | 312° |
| 2026-04-17 14:03 | 31.83432 | 35.00079 | 2468 ft | 77 kts | 309° |
| 2026-04-17 14:04 | 31.83785 | 34.99614 | 2177 ft | 79 kts | 313° |
| 2026-04-17 14:04 | 31.84181 | 34.99096 | 2020 ft | 95 kts | 307° |
| 2026-04-17 14:04 | 31.84585 | 34.98435 | 1828 ft | 108 kts | 309° |
| 2026-04-17 14:04 | 31.85056 | 34.97893 | 1481 ft | 84 kts | 314° |
| 2026-04-17 14:05 | 31.85331 | 34.97338 | 1172 ft | 81 kts | 298° |
| 2026-04-17 14:05 | 31.85656 | 34.96677 | 943 ft | 99 kts | 308° |
| 2026-04-17 14:05 | 31.85985 | 34.96143 | 1174 ft | 75 kts | 301° |
| 2026-04-17 14:05 | 31.86200 | 34.95672 | 1430 ft | 65 kts | 303° |
| 2026-04-17 14:06 | 31.86436 | 34.95151 | 1499 ft | 101 kts | 300° |
| 2026-04-17 14:06 | 31.86864 | 34.94325 | 1759 ft | 137 kts | 306° |
| 2026-04-17 14:06 | 31.87541 | 34.93282 | 1211 ft | 176 kts | 309° |
| 2026-04-17 14:06 | 31.88288 | 34.92253 | 1249 ft | 163 kts | 313° |
| 2026-04-17 14:07 | 31.89072 | 34.91333 | 1183 ft | 155 kts | 319° |
| 2026-04-17 14:07 | 31.89827 | 34.90560 | 1353 ft | 132 kts | 316° |
| 2026-04-17 14:07 | 31.90389 | 34.89715 | 1449 ft | 135 kts | 298° |
| 2026-04-17 14:07 | 31.90674 | 34.88622 | 1420 ft | 141 kts | 289° |
| 2026-04-17 14:08 | 31.91033 | 34.87594 | 1133 ft | 138 kts | 298° |
| 2026-04-17 14:08 | 31.91691 | 34.86845 | 1207 ft | 148 kts | 337° |
| 2026-04-17 14:08 | 31.92820 | 34.86507 | 1431 ft | 181 kts | 353° |
| 2026-04-17 14:08 | 31.94144 | 34.86501 | 1703 ft | 200 kts | 2° |
| 2026-04-17 14:09 | 31.95620 | 34.86682 | 1306 ft | 215 kts | 8° |
| 2026-04-17 14:09 | 31.96982 | 34.86992 | 1154 ft | 181 kts | 12° |
| 2026-04-17 14:09 | 31.98083 | 34.87157 | 1239 ft | 143 kts | 356° |
| 2026-04-17 14:09 | 31.98989 | 34.87329 | 1229 ft | 121 kts | 356° |
| 2026-04-17 14:10 | 31.99795 | 34.87232 | 1238 ft | 127 kts | 350° |
| 2026-04-17 14:10 | 32.00799 | 34.87088 | 1246 ft | 159 kts | 350° |
| 2026-04-17 14:10 | 32.01932 | 34.86951 | 1254 ft | 166 kts | 352° |
| 2026-04-17 14:10 | 32.03089 | 34.86844 | 1255 ft | 168 kts | 352° |
| 2026-04-17 14:11 | 32.04237 | 34.86686 | 1253 ft | 156 kts | 350° |
| 2026-04-17 14:11 | 32.05234 | 34.86576 | 1236 ft | 132 kts | 353° |
| 2026-04-17 14:11 | 32.06080 | 34.86508 | 1193 ft | 119 kts | 351° |
| 2026-04-17 14:11 | 32.07022 | 34.86310 | 1213 ft | 155 kts | 343° |
| 2026-04-17 14:12 | 32.08143 | 34.85952 | 1219 ft | 169 kts | 344° |
| 2026-04-17 14:12 | 32.09270 | 34.85541 | 1219 ft | 170 kts | 338° |
| 2026-04-17 14:12 | 32.10310 | 34.85004 | 1042 ft | 159 kts | 335° |
| 2026-04-17 14:13 | 32.12379 | 34.83970 | 1379 ft | 162 kts | 333° |
| 2026-04-17 14:13 | 32.13335 | 34.83367 | 1043 ft | 152 kts | 327° |
| 2026-04-17 14:13 | 32.14254 | 34.83215 | 914 ft | 141 kts | 32° |
| 2026-04-17 14:13 | 32.14629 | 34.84241 | 951 ft | 148 kts | 82° |
| 2026-04-17 14:14 | 32.14684 | 34.85480 | 1226 ft | 160 kts | 81° |
| 2026-04-17 14:14 | 32.15133 | 34.86620 | 1398 ft | 162 kts | 34° |
| 2026-04-17 14:14 | 32.16088 | 34.87296 | 1549 ft | 154 kts | 20° |
| 2026-04-17 14:14 | 32.16945 | 34.87108 | 1409 ft | 132 kts | 312° |
| 2026-04-17 14:15 | 32.17486 | 34.86128 | 1119 ft | 137 kts | 300° |
| 2026-04-17 14:15 | 32.17900 | 34.85041 | 1343 ft | 151 kts | 287° |
| 2026-04-17 14:15 | 32.17983 | 34.83839 | 1239 ft | 146 kts | 291° |
| 2026-04-17 14:15 | 32.18769 | 34.83379 | 1087 ft | 132 kts | 20° |
| 2026-04-17 14:16 | 32.19041 | 34.84152 | 1073 ft | 100 kts | 111° |
| 2026-04-17 14:16 | 32.18716 | 34.84972 | 801 ft | 121 kts | 123° |
| 2026-04-17 14:16 | 32.18109 | 34.85241 | 535 ft | 74 kts | 195° |
| 2026-04-17 14:16 | 32.17592 | 34.85016 | 560 ft | 94 kts | 246° |
| 2026-04-17 14:17 | 32.17842 | 34.84130 | 282 ft | 125 kts | 288° |
| 2026-04-17 14:17 | 32.18032 | 34.83468 | 295 ft | 78 kts | 287° |
| 2026-04-17 14:17 | 32.18299 | 34.82727 | 511 ft | 118 kts | 321° |
| 2026-04-17 14:17 | 32.19103 | 34.82827 | 804 ft | 125 kts | 36° |
| 2026-04-17 14:18 | 32.19225 | 34.83752 | 777 ft | 129 kts | 117° |
| 2026-04-17 14:18 | 32.18780 | 34.84715 | 857 ft | 126 kts | 120° |
| 2026-04-17 14:18 | 32.18133 | 34.85290 | 703 ft | 118 kts | 197° |
| 2026-04-17 14:18 | 32.17634 | 34.84744 | 451 ft | 99 kts | 289° |
| 2026-04-17 14:19 | 32.17833 | 34.84053 | 234 ft | 85 kts | 296° |
| 2026-04-17 14:19 | 32.18009 | 34.83529 | 102 ft | 29 kts | 289° |
| 2026-04-17 14:19 | 32.18040 | 34.83425 | 99 ft | 22 kts | 292° |
| 2026-04-17 14:19 | 32.18056 | 34.83371 | 97 ft | 14 kts | 283° |
| 2026-04-17 14:20 | 32.18039 | 34.83327 | 97 ft | 2 kts | 185° |
| 2026-04-17 14:20 | 32.17991 | 34.83468 | 101 ft | 22 kts | 110° |
| 2026-04-17 14:20 | 32.17949 | 34.83612 | 105 ft | 14 kts | 108° |
| 2026-04-17 14:20 | 32.17921 | 34.83672 | 109 ft | 5 kts | 176° |
| 2026-04-17 14:21 | 32.17890 | 34.83672 | 108 ft | 3 kts | 127° |
| 2026-04-17 14:21 | 32.17875 | 34.83738 | 113 ft | 4 kts | 113° |
| 2026-04-17 14:21 | 32.17873 | 34.83743 | 113 ft | 2 kts | 128° |
| 2026-04-17 14:21 | 32.17868 | 34.83758 | 113 ft | 2 kts | 356° |
| 2026-04-17 14:22 | 32.17863 | 34.83770 | 114 ft | 0 kts | 10° |
| 2026-04-17 14:22 | 32.17863 | 34.83778 | 115 ft | 13 kts | 13° |
| 2026-04-17 14:22 | 32.17865 | 34.83769 | 113 ft | 0 kts | 12° |